createdAt,value
2018-10-19T00:01:15.931Z,9.70
2018-10-19T00:03:46.923Z,9.80
2018-10-19T00:06:18.344Z,9.80
2018-10-19T00:08:49.412Z,9.70
2018-10-19T00:11:20.387Z,9.70
2018-10-19T00:13:51.495Z,9.60
2018-10-19T00:16:22.534Z,9.60
2018-10-19T00:18:53.623Z,9.70
2018-10-19T00:21:24.635Z,9.90
2018-10-19T00:23:55.683Z,10.00
2018-10-19T00:26:26.795Z,10.00
2018-10-19T00:28:57.889Z,10.00
2018-10-19T00:31:28.857Z,9.80
2018-10-19T00:33:59.924Z,9.80
2018-10-19T00:36:31.004Z,9.70
2018-10-19T00:39:02.122Z,9.60
2018-10-19T00:41:33.179Z,9.60
2018-10-19T00:44:04.283Z,9.60
2018-10-19T00:46:35.326Z,9.60
2018-10-19T00:49:07.070Z,9.30
2018-10-19T00:51:38.756Z,9.30
2018-10-19T00:54:10.434Z,9.40
2018-10-19T00:56:41.401Z,9.40
2018-10-19T00:59:12.433Z,9.40
2018-10-19T01:01:43.367Z,9.10
2018-10-19T01:04:14.393Z,9.00
2018-10-19T01:06:45.507Z,9.10
2018-10-19T01:09:16.551Z,9.30
2018-10-19T01:11:47.585Z,9.50
2018-10-19T01:14:18.951Z,9.60
2018-10-19T01:16:49.931Z,9.50
2018-10-19T01:19:20.991Z,9.30
2018-10-19T01:21:51.991Z,9.10
2018-10-19T01:24:23.071Z,9.20
2018-10-19T01:26:54.066Z,9.10
2018-10-19T01:29:25.073Z,9.10
2018-10-19T01:31:56.071Z,9.00
2018-10-19T01:34:27.131Z,9.10
2018-10-19T01:36:58.195Z,9.00
2018-10-19T01:39:29.199Z,9.10
2018-10-19T01:42:00.139Z,9.10
2018-10-19T01:44:32.707Z,9.00
2018-10-19T01:47:03.765Z,9.10
2018-10-19T01:49:34.801Z,9.20
2018-10-19T01:52:06.352Z,9.10
2018-10-19T01:54:37.404Z,8.80
2018-10-19T01:57:08.434Z,8.70
2018-10-19T01:59:39.499Z,8.80
2018-10-19T02:02:10.531Z,8.70
2018-10-19T02:04:41.619Z,8.60
2018-10-19T02:07:12.590Z,8.90
2018-10-19T02:09:43.640Z,8.80
2018-10-19T02:12:14.795Z,8.60
2018-10-19T02:14:45.850Z,8.60
2018-10-19T02:17:16.875Z,8.50
2018-10-19T02:19:48.012Z,8.50
2018-10-19T02:22:19.071Z,8.60
2018-10-19T02:24:50.126Z,8.70
2018-10-19T02:27:21.151Z,8.70
2018-10-19T02:29:52.254Z,8.60
2018-10-19T02:32:23.510Z,8.40
2018-10-19T02:34:54.593Z,8.40
2018-10-19T02:37:25.613Z,8.40
2018-10-19T02:39:56.933Z,8.50
2018-10-19T02:42:27.912Z,8.30
2018-10-19T02:44:58.975Z,8.30
2018-10-19T02:47:29.951Z,8.40
2018-10-19T02:50:00.916Z,8.50
2018-10-19T02:52:31.823Z,8.40
2018-10-19T02:55:02.898Z,8.50
2018-10-19T02:57:33.827Z,8.60
2018-10-19T03:00:05.053Z,8.50
2018-10-19T03:02:36.055Z,8.60
2018-10-19T03:05:08.476Z,8.40
2018-10-19T03:07:39.472Z,8.50
2018-10-19T03:10:10.952Z,8.40
2018-10-19T03:12:41.984Z,8.30
2018-10-19T03:15:13.098Z,8.20
2018-10-19T03:17:44.115Z,8.10
2018-10-19T03:20:15.643Z,8.10
2018-10-19T03:22:46.558Z,8.40
2018-10-19T03:25:17.594Z,8.20
2018-10-19T03:27:48.551Z,8.10
2018-10-19T03:30:19.542Z,8.10
2018-10-19T03:32:50.534Z,8.00
2018-10-19T03:35:21.592Z,8.10
2018-10-19T03:37:52.516Z,8.30
2018-10-19T03:40:23.533Z,8.40
2018-10-19T03:42:54.385Z,8.40
2018-10-19T03:45:25.313Z,8.10
2018-10-19T03:47:56.351Z,8.00
2018-10-19T03:50:27.344Z,8.10
2018-10-19T03:52:58.442Z,8.20
2018-10-19T03:55:29.462Z,8.30
2018-10-19T03:58:00.431Z,8.30
2018-10-19T04:00:32.078Z,8.20
2018-10-19T04:03:03.100Z,8.20
2018-10-19T04:05:34.157Z,8.30
2018-10-19T04:08:05.152Z,8.10
2018-10-19T04:10:36.234Z,8.10
2018-10-19T04:13:07.215Z,7.90
2018-10-19T04:15:38.223Z,8.10
2018-10-19T04:18:09.252Z,8.00
2018-10-19T04:20:40.354Z,7.90
2018-10-19T04:23:11.527Z,7.90
2018-10-19T04:25:42.471Z,8.00
2018-10-19T04:28:13.551Z,7.90
2018-10-19T04:30:44.667Z,8.10
2018-10-19T04:33:15.762Z,8.20
2018-10-19T04:35:47.918Z,8.20
2018-10-19T04:38:18.944Z,8.20
2018-10-19T04:40:50.016Z,8.30
2018-10-19T04:43:20.982Z,8.20
2018-10-19T04:45:52.001Z,8.10
2018-10-19T04:48:22.971Z,7.80
2018-10-19T04:50:54.167Z,7.90
2018-10-19T04:53:25.247Z,8.00
2018-10-19T04:55:56.355Z,8.10
2018-10-19T04:58:27.352Z,7.80
2018-10-19T05:00:58.419Z,7.90
2018-10-19T05:03:30.497Z,8.00
2018-10-19T05:06:01.637Z,8.10
2018-10-19T05:08:32.600Z,8.10
2018-10-19T05:11:03.813Z,8.20
2018-10-19T05:13:34.952Z,8.10
2018-10-19T05:16:05.995Z,8.10
2018-10-19T05:18:37.067Z,7.90
2018-10-19T05:21:08.151Z,7.90
2018-10-19T05:23:39.159Z,7.90
2018-10-19T05:26:10.269Z,7.80
2018-10-19T05:28:41.281Z,7.90
2018-10-19T05:31:12.401Z,7.90
2018-10-19T05:33:43.505Z,7.90
2018-10-19T05:36:14.578Z,7.90
2018-10-19T05:38:45.591Z,7.80
2018-10-19T05:41:16.785Z,7.90
2018-10-19T05:43:47.846Z,7.90
2018-10-19T05:46:19.007Z,7.80
2018-10-19T05:48:49.976Z,7.60
2018-10-19T05:51:21.071Z,7.60
2018-10-19T05:53:52.732Z,7.50
2018-10-19T05:56:23.752Z,7.70
2018-10-19T05:58:54.689Z,7.80
2018-10-19T06:01:25.753Z,7.70
2018-10-19T06:03:56.746Z,7.70
2018-10-19T06:06:27.712Z,7.40
2018-10-19T06:08:58.708Z,7.50
2018-10-19T06:11:30.038Z,7.70
2018-10-19T06:14:01.020Z,7.80
2018-10-19T06:16:32.574Z,7.70
2018-10-19T06:19:03.614Z,7.60
2018-10-19T06:21:34.611Z,7.80
2018-10-19T06:24:06.599Z,7.90
2018-10-19T06:26:37.651Z,7.90
2018-10-19T06:29:09.227Z,7.70
2018-10-19T06:31:40.257Z,7.80
2018-10-19T06:34:11.179Z,7.90
2018-10-19T06:36:42.231Z,7.80
2018-10-19T06:39:13.514Z,7.50
2018-10-19T06:41:44.551Z,7.50
2018-10-19T06:44:15.661Z,7.50
2018-10-19T06:46:46.806Z,7.60
2018-10-19T06:49:17.732Z,7.80
2018-10-19T06:51:48.772Z,7.70
2018-10-19T06:54:19.780Z,7.80
2018-10-19T06:56:50.781Z,7.70
2018-10-19T06:59:21.793Z,7.60
2018-10-19T07:01:52.861Z,7.70
2018-10-19T07:04:23.872Z,7.70
2018-10-19T07:06:55.032Z,7.80
2018-10-19T07:09:25.975Z,7.90
2018-10-19T07:11:57.016Z,8.00
2018-10-19T07:14:27.991Z,8.00
2018-10-19T07:16:59.101Z,8.10
2018-10-19T07:19:30.079Z,8.20
2018-10-19T07:22:01.113Z,8.20
2018-10-19T07:24:32.152Z,8.20
2018-10-19T07:27:03.219Z,8.20
2018-10-19T07:29:34.293Z,8.10
2018-10-19T07:32:05.697Z,7.90
2018-10-19T07:34:36.672Z,8.00
2018-10-19T07:37:07.995Z,7.80
2018-10-19T07:39:39.016Z,7.80
2018-10-19T07:42:10.115Z,7.80
2018-10-19T07:44:41.135Z,7.90
2018-10-19T07:47:12.661Z,8.10
2018-10-19T07:49:43.932Z,8.00
2018-10-19T07:52:14.891Z,7.90
2018-10-19T07:54:45.875Z,8.00
2018-10-19T07:57:16.948Z,8.00
2018-10-19T07:59:47.913Z,8.20
2018-10-19T08:02:18.872Z,8.00
2018-10-19T08:04:49.751Z,7.90
2018-10-19T08:07:20.715Z,7.90
2018-10-19T08:09:51.711Z,7.90
2018-10-19T08:12:22.727Z,7.80
2018-10-19T08:14:53.796Z,7.90
2018-10-19T08:17:25.553Z,8.00
2018-10-19T08:19:56.672Z,8.10
2018-10-19T08:22:27.787Z,8.20
2018-10-19T08:24:58.732Z,8.20
2018-10-19T08:27:29.744Z,8.20
2018-10-19T08:30:00.865Z,8.30
2018-10-19T08:32:31.871Z,8.40
2018-10-19T08:35:02.888Z,8.30
2018-10-19T08:37:33.931Z,8.40
2018-10-19T08:40:05.746Z,8.50
2018-10-19T08:42:36.794Z,8.70
2018-10-19T08:45:08.720Z,8.70
2018-10-19T08:47:39.909Z,9.00
2018-10-19T08:50:11.072Z,9.10
2018-10-19T08:52:42.173Z,9.30
2018-10-19T08:55:13.185Z,9.40
2018-10-19T08:57:45.596Z,9.80
2018-10-19T09:00:16.678Z,10.70
2018-10-19T09:02:47.771Z,10.80
2018-10-19T09:05:18.740Z,11.20
2018-10-19T09:07:49.751Z,11.40
2018-10-19T09:10:21.275Z,12.10
2018-10-19T09:12:52.959Z,12.00
2018-10-19T09:15:23.932Z,11.80
2018-10-19T09:17:54.976Z,11.60
2018-10-19T09:20:25.973Z,11.70
2018-10-19T09:22:58.056Z,12.00
2018-10-19T09:25:29.072Z,12.40
2018-10-19T09:28:00.253Z,12.60
2018-10-19T09:30:31.298Z,12.20
2018-10-19T09:33:02.379Z,12.60
2018-10-19T09:35:33.451Z,12.90
2018-10-19T09:38:04.489Z,12.50
2018-10-19T09:40:35.654Z,12.50
2018-10-19T09:43:07.307Z,12.80
2018-10-19T09:45:39.253Z,12.80
2018-10-19T09:48:13.396Z,12.80
2018-10-19T09:50:44.463Z,12.70
2018-10-19T09:53:15.661Z,13.00
2018-10-19T09:55:46.622Z,13.20
2018-10-19T09:58:17.731Z,13.00
2018-10-19T10:00:53.701Z,13.20
2018-10-19T10:03:24.873Z,13.50
2018-10-19T10:05:56.459Z,13.50
2018-10-19T10:08:27.684Z,13.50
2018-10-19T10:10:59.362Z,13.50
2018-10-19T10:13:30.402Z,13.70
2018-10-19T10:16:01.414Z,13.70
2018-10-19T10:18:32.526Z,13.90
2018-10-19T10:21:03.578Z,14.00
2018-10-19T10:23:35.338Z,13.60
2018-10-19T10:26:06.453Z,13.60
2018-10-19T10:28:38.519Z,14.10
2018-10-19T10:31:09.672Z,14.10
2018-10-19T10:33:40.744Z,14.20
2018-10-19T10:36:14.733Z,14.10
2018-10-19T10:38:45.961Z,14.20
2018-10-19T10:41:17.524Z,14.20
2018-10-19T10:43:49.514Z,14.20
2018-10-19T10:46:20.647Z,14.30
2018-10-19T10:48:51.730Z,14.40
2018-10-19T10:51:23.746Z,14.70
2018-10-19T10:53:57.844Z,14.80
2018-10-19T10:56:29.872Z,14.80
2018-10-19T10:59:00.972Z,14.80
2018-10-19T11:01:40.233Z,14.70
2018-10-19T11:04:20.553Z,14.90
2018-10-19T11:06:51.494Z,15.20
2018-10-19T11:09:23.732Z,15.20
2018-10-19T11:11:55.573Z,15.30
2018-10-19T11:14:26.703Z,15.30
2018-10-19T11:16:58.527Z,15.30
2018-10-19T11:19:29.650Z,15.20
2018-10-19T11:22:01.404Z,15.50
2018-10-19T11:24:32.369Z,15.30
2018-10-19T11:27:03.308Z,15.40
2018-10-19T11:29:34.451Z,15.60
2018-10-19T11:32:05.504Z,15.70
2018-10-19T11:34:36.625Z,15.80
2018-10-19T11:37:07.794Z,15.80
2018-10-19T11:39:52.421Z,15.80
2018-10-19T11:42:23.497Z,15.70
2018-10-19T11:44:54.459Z,15.80
2018-10-19T11:47:25.571Z,15.90
2018-10-19T11:49:57.870Z,15.90
2018-10-19T11:52:30.148Z,15.80
2018-10-19T11:55:01.834Z,16.10
2018-10-19T11:57:33.951Z,16.20
2018-10-19T12:00:05.542Z,16.30
2018-10-19T12:02:36.652Z,16.20
2018-10-19T12:05:08.866Z,16.00
2018-10-19T12:07:40.509Z,16.20
2018-10-19T12:10:13.312Z,16.20
2018-10-19T12:12:46.106Z,16.10
2018-10-19T12:15:18.694Z,16.10
2018-10-19T12:17:49.592Z,16.30
2018-10-19T12:20:22.047Z,16.50
2018-10-19T12:22:53.199Z,16.50
2018-10-19T12:25:24.323Z,16.50
2018-10-19T12:27:55.348Z,16.50
2018-10-19T12:30:26.427Z,16.50
2018-10-19T12:32:57.424Z,16.50
2018-10-19T12:35:28.487Z,16.60
2018-10-19T12:37:59.679Z,16.80
2018-10-19T12:40:30.964Z,16.90
2018-10-19T12:43:03.506Z,16.80
2018-10-19T12:46:51.560Z,16.90
2018-10-19T12:49:24.289Z,16.90
2018-10-19T12:51:55.341Z,17.10
2018-10-19T12:54:26.551Z,17.00
2018-10-19T12:56:57.687Z,17.20
2018-10-19T12:59:29.011Z,17.10
2018-10-19T13:02:00.376Z,17.30
2018-10-19T13:04:31.384Z,17.30
2018-10-19T13:07:02.550Z,17.40
2018-10-19T13:09:33.990Z,17.50
2018-10-19T13:12:05.166Z,17.50
2018-10-19T13:14:36.225Z,17.70
2018-10-19T13:17:08.083Z,17.70
2018-10-19T13:19:39.245Z,17.80
2018-10-19T13:22:10.379Z,17.80
2018-10-19T13:24:41.463Z,17.60
2018-10-19T13:27:12.621Z,17.60
2018-10-19T13:29:43.692Z,17.60
2018-10-19T13:32:14.831Z,17.60
2018-10-19T13:34:45.892Z,17.70
2018-10-19T13:37:17.842Z,17.70
2018-10-19T13:39:48.917Z,17.70
2018-10-19T13:42:19.977Z,17.90
2018-10-19T13:44:51.061Z,17.70
2018-10-19T13:47:22.258Z,17.80
2018-10-19T13:49:53.283Z,17.90
2018-10-19T13:52:24.407Z,17.90
2018-10-19T13:54:55.592Z,17.70
2018-10-19T13:57:26.793Z,17.60
2018-10-19T13:59:57.881Z,17.60
2018-10-19T14:02:29.031Z,17.70
2018-10-19T14:05:00.037Z,17.80
2018-10-19T14:07:31.060Z,18.00
2018-10-19T14:10:02.713Z,18.00
2018-10-19T14:12:33.752Z,17.60
2018-10-19T14:15:04.917Z,17.60
2018-10-19T14:17:36.807Z,17.70
2018-10-19T14:20:09.854Z,17.80
2018-10-19T14:22:41.008Z,17.90
2018-10-19T14:25:13.331Z,18.00
2018-10-19T14:27:45.913Z,18.00
2018-10-19T14:30:18.191Z,17.90
2018-10-19T14:32:49.304Z,17.80
2018-10-19T14:35:20.445Z,17.90
2018-10-19T14:37:51.481Z,17.90
2018-10-19T14:40:22.451Z,17.80
2018-10-19T14:42:54.400Z,17.80
2018-10-19T14:45:25.461Z,17.80
2018-10-19T14:47:56.580Z,17.50
2018-10-19T14:50:27.854Z,17.30
2018-10-19T14:52:59.171Z,17.20
2018-10-19T14:55:30.252Z,17.20
2018-10-19T14:58:01.482Z,16.90
2018-10-19T15:00:32.627Z,16.70
2018-10-19T15:03:03.835Z,16.70
2018-10-19T15:05:34.959Z,16.70
2018-10-19T15:08:06.274Z,16.70
2018-10-19T15:10:37.667Z,16.60
2018-10-19T15:13:08.472Z,16.40
2018-10-19T15:15:39.537Z,16.40
2018-10-19T15:18:10.787Z,16.30
2018-10-19T15:20:41.804Z,16.20
2018-10-19T15:23:12.873Z,16.20
2018-10-19T15:25:43.933Z,16.10
2018-10-19T15:28:14.933Z,16.00
2018-10-19T15:30:46.899Z,16.00
2018-10-19T15:33:18.852Z,16.00
2018-10-19T15:35:49.852Z,15.90
2018-10-19T15:38:20.996Z,15.90
2018-10-19T15:40:52.013Z,15.80
2018-10-19T15:43:23.045Z,15.80
2018-10-19T15:45:54.081Z,15.60
2018-10-19T15:48:25.225Z,15.50
2018-10-19T15:50:56.296Z,15.40
2018-10-19T15:53:27.419Z,15.40
2018-10-19T15:55:58.464Z,15.20
2018-10-19T15:58:29.545Z,15.20
2018-10-19T16:01:00.674Z,15.10
2018-10-19T16:03:31.857Z,15.00
2018-10-19T16:06:03.472Z,14.90
2018-10-19T16:08:34.572Z,14.80
2018-10-19T16:11:05.764Z,14.60
2018-10-19T16:13:37.125Z,14.50
2018-10-19T16:16:08.901Z,14.50
2018-10-19T16:18:40.047Z,14.50
2018-10-19T16:21:11.297Z,14.60
2018-10-19T16:23:42.647Z,14.50
2018-10-19T16:26:13.764Z,14.40
2018-10-19T16:28:44.913Z,14.40
2018-10-19T16:31:15.961Z,14.50
2018-10-19T16:33:47.226Z,14.40
2018-10-19T16:36:18.247Z,14.30
2018-10-19T16:38:49.639Z,14.20
2018-10-19T16:41:20.672Z,14.20
2018-10-19T16:43:52.020Z,14.20
2018-10-19T16:46:23.052Z,14.10
2018-10-19T16:48:54.473Z,14.10
2018-10-19T16:51:25.552Z,13.90
2018-10-19T16:53:56.740Z,13.90
2018-10-19T16:56:27.852Z,13.90
2018-10-19T16:58:59.914Z,13.80
2018-10-19T17:01:36.819Z,13.80
2018-10-19T17:04:08.973Z,13.80
2018-10-19T17:06:41.288Z,13.80
2018-10-19T17:09:14.503Z,13.70
2018-10-19T17:11:45.988Z,13.40
2018-10-19T17:14:18.073Z,13.30
2018-10-19T17:16:49.247Z,13.20
2018-10-19T17:19:26.038Z,13.00
2018-10-19T17:21:58.459Z,12.90
2018-10-19T17:24:29.615Z,12.80
2018-10-19T17:27:01.036Z,12.70
2018-10-19T17:29:33.432Z,12.80
2018-10-19T17:32:04.643Z,12.80
2018-10-19T17:34:35.729Z,12.70
2018-10-19T17:37:07.043Z,12.70
2018-10-19T17:39:38.111Z,12.60
2018-10-19T17:42:09.280Z,12.60
2018-10-19T17:44:40.614Z,12.50
2018-10-19T17:47:11.819Z,12.50
2018-10-19T17:49:43.018Z,12.40
2018-10-19T17:52:14.729Z,12.40
2018-10-19T17:54:46.624Z,12.40
2018-10-19T17:57:17.744Z,12.40
2018-10-19T17:59:49.124Z,12.40
2018-10-19T18:02:20.127Z,12.40
2018-10-19T18:04:51.268Z,12.40
2018-10-19T18:07:22.384Z,12.20
2018-10-19T18:09:53.507Z,12.20
2018-10-19T18:12:24.633Z,12.20
2018-10-19T18:14:55.850Z,12.20
2018-10-19T18:17:27.693Z,12.20
2018-10-19T18:19:58.843Z,12.20
2018-10-19T18:22:33.455Z,12.10
2018-10-19T18:25:04.433Z,12.20
2018-10-19T18:27:35.403Z,12.20
2018-10-19T18:30:07.182Z,12.10
2018-10-19T18:32:39.139Z,12.20
2018-10-19T18:35:11.834Z,12.20
2018-10-19T18:37:42.952Z,12.20
2018-10-19T18:40:13.990Z,12.10
2018-10-19T18:42:45.073Z,12.10
2018-10-19T18:45:16.238Z,12.10
2018-10-19T18:47:47.434Z,12.00
2018-10-19T18:50:19.500Z,12.00
2018-10-19T18:52:50.371Z,11.90
2018-10-19T18:55:23.890Z,12.00
2018-10-19T18:57:54.980Z,12.10
2018-10-19T19:00:26.212Z,12.00
2018-10-19T19:02:57.310Z,11.90
2018-10-19T19:05:28.580Z,11.90
2018-10-19T19:08:00.469Z,11.80
2018-10-19T19:10:33.353Z,11.70
2018-10-19T19:13:10.092Z,11.70
2018-10-19T19:15:41.357Z,11.70
2018-10-19T19:18:12.541Z,11.60
2018-10-19T19:20:44.150Z,11.50
2018-10-19T19:23:15.826Z,11.40
2018-10-19T19:25:52.144Z,11.40
2018-10-19T19:28:23.395Z,11.20
2018-10-19T19:30:54.564Z,11.10
2018-10-19T19:33:30.794Z,11.20
2018-10-19T19:36:02.214Z,11.10
2018-10-19T19:38:33.592Z,11.10
2018-10-19T19:41:09.781Z,11.10
2018-10-19T19:43:40.867Z,11.10
2018-10-19T19:46:12.494Z,11.20
2018-10-19T19:48:48.606Z,11.10
2018-10-19T19:51:19.870Z,11.00
2018-10-19T19:53:51.886Z,10.90
2018-10-19T19:56:24.650Z,10.90
2018-10-19T19:58:55.817Z,10.90
2018-10-19T20:01:27.043Z,10.90
2018-10-19T20:03:58.344Z,10.80
2018-10-19T20:06:29.943Z,10.90
2018-10-19T20:09:01.217Z,10.80
2018-10-19T20:11:32.331Z,10.70
2018-10-19T20:14:03.412Z,10.70
2018-10-19T20:16:36.004Z,10.90
2018-10-19T20:19:07.850Z,10.60
2018-10-19T20:21:39.000Z,10.60
2018-10-19T20:24:10.781Z,10.60
2018-10-19T20:26:42.584Z,10.60
2018-10-19T20:29:13.639Z,10.50
2018-10-19T20:31:44.784Z,10.50
2018-10-19T20:34:16.233Z,10.60
2018-10-19T20:36:47.787Z,10.70
2018-10-19T20:39:18.859Z,10.70
2018-10-19T20:41:50.603Z,10.60
2018-10-19T20:44:22.206Z,10.70
2018-10-19T20:46:53.467Z,10.70
2018-10-19T20:49:24.497Z,10.70
2018-10-19T20:51:55.583Z,10.50
2018-10-19T20:54:26.593Z,10.50
2018-10-19T20:56:58.224Z,10.40
2018-10-19T20:59:29.935Z,10.30
2018-10-19T21:02:01.175Z,10.20
2018-10-19T21:04:32.288Z,10.20
2018-10-19T21:07:03.312Z,10.40
2018-10-19T21:09:34.373Z,10.30
2018-10-19T21:12:05.595Z,10.20
2018-10-19T21:14:37.353Z,10.10
2018-10-19T21:17:08.460Z,10.30
2018-10-19T21:19:39.624Z,10.30
2018-10-19T21:22:10.806Z,10.20
2018-10-19T21:24:41.882Z,10.10
2018-10-19T21:27:13.891Z,10.00
2018-10-19T21:29:46.118Z,9.90
2018-10-19T21:32:17.496Z,10.00
2018-10-19T21:34:48.552Z,10.00
2018-10-19T21:37:19.588Z,10.00
2018-10-19T21:39:51.091Z,10.00
2018-10-19T21:42:22.111Z,10.00
2018-10-19T21:44:53.331Z,9.90
2018-10-19T21:47:25.034Z,9.90
2018-10-19T21:49:56.158Z,9.90
2018-10-19T21:52:27.119Z,10.00
2018-10-19T21:54:58.217Z,9.80
2018-10-19T21:57:29.213Z,9.70
2018-10-19T22:00:00.194Z,9.70
2018-10-19T22:02:31.173Z,9.70
2018-10-19T22:05:02.847Z,9.70
2018-10-19T22:07:33.856Z,9.70
2018-10-19T22:10:04.926Z,9.80
2018-10-19T22:12:35.980Z,9.80
2018-10-19T22:15:08.134Z,9.90
2018-10-19T22:17:39.171Z,9.90
2018-10-19T22:20:10.651Z,9.90
2018-10-19T22:22:41.691Z,9.90
2018-10-19T22:25:12.797Z,9.90
2018-10-19T22:27:43.717Z,9.80
2018-10-19T22:30:14.814Z,9.70
2018-10-19T22:32:45.695Z,9.40
2018-10-19T22:35:16.760Z,9.50
2018-10-19T22:37:47.667Z,9.40
2018-10-19T22:40:18.680Z,9.40
2018-10-19T22:42:49.641Z,9.50
2018-10-19T22:45:20.610Z,9.40
2018-10-19T22:47:51.639Z,9.20
2018-10-19T22:50:22.680Z,9.20
2018-10-19T22:52:53.707Z,9.30
2018-10-19T22:55:24.819Z,9.30
2018-10-19T22:57:56.269Z,9.40
2018-10-19T23:00:27.340Z,9.40
2018-10-19T23:02:58.412Z,9.20
2018-10-19T23:05:29.443Z,9.20
2018-10-19T23:08:00.435Z,9.10
2018-10-19T23:10:31.355Z,9.10
2018-10-19T23:13:02.451Z,9.10
2018-10-19T23:15:33.457Z,9.00
2018-10-19T23:18:04.488Z,9.00
2018-10-19T23:20:35.593Z,9.00
2018-10-19T23:23:06.572Z,8.80
2018-10-19T23:25:37.835Z,9.00
2018-10-19T23:28:08.911Z,8.90
2018-10-19T23:30:39.927Z,8.90
2018-10-19T23:33:13.812Z,9.10
2018-10-19T23:35:44.835Z,9.00
2018-10-19T23:38:15.832Z,8.80
2018-10-19T23:40:46.820Z,8.90
2018-10-19T23:43:17.793Z,9.10
2018-10-19T23:45:48.731Z,9.30
2018-10-19T23:48:19.712Z,9.30
2018-10-19T23:50:50.755Z,9.30
2018-10-19T23:53:21.702Z,9.20
2018-10-19T23:58:34.910Z,9.20
